Time;durP1;ratioP1;P1;durP2;ratioP2;P2;SDS_P1;SDS_P2;PMS_P1;PMS_P2;Temp;Humidity;BMP_temperature;BMP_pressure;BME280_temperature;BME280_humidity;BME280_pressure;Samples;Min_cycle;Max_cycle;Signal;HPM_P1;HPM_P2
2023/09/25 00:00:52;;;;;;;17.67;12.25;;;;;;;-145.63;56.70;38828.69;5020804;28;20083;-68
2023/09/25 00:03:18;;;;;;;15.05;12.48;;;;;;;-145.63;56.80;38844.34;5042594;28;20029;-68
2023/09/25 00:05:45;;;;;;;14.85;11.95;;;;;;;-145.63;57.36;38820.88;5028498;28;20203;-68
2023/09/25 00:08:11;;;;;;;16.45;11.88;;;;;;;-145.63;56.99;38824.78;5015981;28;20215;-69
2023/09/25 00:10:37;;;;;;;12.98;11.63;;;;;;;-145.63;57.28;38846.28;5012312;28;20022;-67
2023/09/25 00:13:03;;;;;;;13.98;11.18;;;;;;;-145.63;56.53;38852.16;5025937;28;20036;-67
2023/09/25 00:15:29;;;;;;;13.38;10.80;;;;;;;-145.63;56.93;38846.28;5007043;28;20022;-67
2023/09/25 00:17:55;;;;;;;13.35;11.65;;;;;;;-145.63;56.86;38820.88;5008040;28;20053;-70
2023/09/25 00:20:23;;;;;;;17.55;12.88;;;;;;;-145.63;57.12;38822.81;5017618;28;20025;-68
2023/09/25 00:22:50;;;;;;;14.15;10.50;;;;;;;-145.63;57.51;38846.28;5019925;28;20187;-68
2023/09/25 00:25:20;;;;;;;15.07;10.52;;;;;;;-145.63;57.29;38858.03;5008721;28;20022;-67
2023/09/25 00:27:46;;;;;;;12.00;9.38;;;;;;;-145.63;58.01;38863.88;5030162;28;20064;-67
2023/09/25 00:30:12;;;;;;;12.07;8.48;;;;;;;-145.63;56.91;38856.06;5027969;28;20064;-67
2023/09/25 00:32:37;;;;;;;8.63;5.85;;;;;;;-145.63;57.55;38887.34;5013211;28;20287;-68
2023/09/25 00:35:10;;;;;;;5.18;4.45;;;;;;;-145.63;56.03;38891.28;5014739;28;20045;-69
2023/09/25 00:37:37;;;;;;;6.53;4.65;;;;;;;-145.63;56.48;38852.16;5019916;28;20034;-68
2023/09/25 00:40:12;;;;;;;5.07;4.50;;;;;;;-145.63;56.76;38859.97;5006986;28;20029;-68
2023/09/25 00:42:45;;;;;;;5.95;5.35;;;;;;;-145.63;57.12;38916.69;5026025;28;20026;-67
2023/09/25 00:45:10;;;;;;;4.70;3.45;;;;;;;-145.63;56.12;38926.47;5008084;28;20033;-68
2023/09/25 00:47:37;;;;;;;3.75;3.35;;;;;;;-145.63;56.45;38881.50;5006389;28;20022;-68
2023/09/25 00:50:04;;;;;;;3.25;2.58;;;;;;;-145.63;56.05;38879.53;5014560;28;20034;-69
2023/09/25 00:52:33;;;;;;;4.00;3.30;;;;;;;-145.63;56.36;38899.09;5022173;28;20037;-66
2023/09/25 00:55:00;;;;;;;3.10;2.80;;;;;;;-145.63;56.32;38906.91;5005958;28;20022;-67
2023/09/25 00:57:28;;;;;;;3.13;2.05;;;;;;;-145.63;55.09;38863.88;5025614;28;20575;-67
2023/09/25 00:59:54;;;;;;;3.13;2.35;;;;;;;-145.63;55.22;38918.66;5011129;28;20213;-67
2023/09/25 01:02:19;;;;;;;2.47;2.20;;;;;;;-145.63;54.51;38912.78;5038047;28;20021;-68
2023/09/25 01:04:45;;;;;;;2.85;2.42;;;;;;;-145.63;54.52;38867.81;5033638;28;20046;-66
2023/09/25 01:07:11;;;;;;;2.92;2.22;;;;;;;-145.63;55.22;38895.19;5016657;28;20053;-67
2023/09/25 01:09:37;;;;;;;4.68;2.30;;;;;;;-145.63;54.03;38914.72;5005942;28;20026;-67
2023/09/25 01:12:05;;;;;;;3.22;2.22;;;;;;;-145.63;54.07;38920.59;5005774;28;20030;-67
2023/09/25 01:14:31;;;;;;;2.33;2.13;;;;;;;-145.63;55.01;38918.66;5017613;28;20064;-67
2023/09/25 01:16:57;;;;;;;3.55;2.00;;;;;;;-145.63;54.69;38903.00;5025357;28;20026;-67
2023/09/25 01:19:23;;;;;;;3.38;2.88;;;;;;;-145.63;54.40;38934.28;5024539;28;20037;-68
2023/09/25 01:21:49;;;;;;;3.45;1.88;;;;;;;-145.63;53.47;38940.16;5025280;28;20040;-67
2023/09/25 01:24:15;;;;;;;1.75;1.52;;;;;;;-145.63;53.92;38910.81;5025063;28;20026;-69
2023/09/25 01:26:40;;;;;;;2.20;1.70;;;;;;;-145.63;53.97;38959.72;5024331;28;20045;-68
2023/09/25 01:29:06;;;;;;;2.15;1.67;;;;;;;-145.63;53.80;38947.97;5016196;28;20092;-67
2023/09/25 01:31:32;;;;;;;2.55;1.90;;;;;;;-145.63;54.27;38942.13;5010684;28;20091;-67
2023/09/25 01:33:58;;;;;;;2.00;1.80;;;;;;;-145.63;54.51;38961.66;5022652;28;20021;-67
2023/09/25 01:36:23;;;;;;;2.22;1.90;;;;;;;-145.63;54.40;38971.44;5005937;28;20030;-67
2023/09/25 01:38:49;;;;;;;2.10;1.50;;;;;;;-145.63;54.58;38969.50;5005556;28;20298;-68
2023/09/25 01:41:15;;;;;;;1.90;1.67;;;;;;;-145.63;54.74;38967.53;5014685;28;20097;-68
2023/09/25 01:43:44;;;;;;;2.00;1.70;;;;;;;-145.63;54.59;38977.31;5024892;28;20160;-68
2023/09/25 01:46:10;;;;;;;1.75;1.58;;;;;;;-145.63;53.61;38961.66;5024068;28;20022;-68
2023/09/25 01:48:36;;;;;;;3.13;1.70;;;;;;;-145.63;53.74;38938.19;5005256;28;20077;-67
2023/09/25 01:51:10;;;;;;;2.22;1.80;;;;;;;-145.63;54.26;38969.50;5010808;28;20018;-68
2023/09/25 01:53:36;;;;;;;2.15;1.98;;;;;;;-145.63;53.83;38973.41;5013754;28;20030;-67
2023/09/25 01:56:12;;;;;;;2.72;1.92;;;;;;;-145.63;53.78;39008.59;5016061;28;20037;-67
2023/09/25 01:58:40;;;;;;;2.78;1.85;;;;;;;-145.63;53.59;38938.19;5009214;28;20018;-68
2023/09/25 02:01:06;;;;;;;3.03;2.00;;;;;;;-145.63;54.50;38949.94;5033562;28;20044;-67
2023/09/25 02:03:31;;;;;;;2.13;1.88;;;;;;;-145.63;54.19;38981.22;5022662;28;20226;-67
2023/09/25 02:05:57;;;;;;;4.15;2.22;;;;;;;-145.63;54.88;38987.09;5011162;28;20222;-62
2023/09/25 02:08:23;;;;;;;2.97;1.77;;;;;;;-145.63;55.28;38953.84;5012746;28;20029;-62
2023/09/25 02:10:48;;;;;;;2.17;2.03;;;;;;;-145.63;55.04;38965.56;5004668;28;20034;-63
2023/09/25 02:13:14;;;;;;;3.28;2.47;;;;;;;-145.63;55.61;38951.88;5005885;28;20036;-63
2023/09/25 02:15:40;;;;;;;2.15;1.92;;;;;;;-145.63;55.45;38996.88;5044047;28;20032;-62
2023/09/25 02:18:08;;;;;;;2.10;2.00;;;;;;;-145.63;55.55;38936.25;5027163;28;20029;-64
2023/09/25 02:20:35;;;;;;;2.28;2.05;;;;;;;-145.63;55.42;38957.75;5012209;28;20207;-64
2023/09/25 02:23:01;;;;;;;4.65;2.33;;;;;;;-145.63;55.76;38992.97;5011411;28;20017;-63
2023/09/25 02:25:27;;;;;;;2.75;2.33;;;;;;;-145.63;54.50;38953.84;5020467;28;20227;-64
2023/09/25 02:27:54;;;;;;;3.55;2.10;;;;;;;-145.63;54.91;38963.63;5022315;28;20037;-64
2023/09/25 02:30:20;;;;;;;3.08;2.10;;;;;;;-145.63;55.55;38965.56;5023608;28;20033;-62
2023/09/25 02:32:46;;;;;;;4.80;2.30;;;;;;;-145.63;55.11;38967.53;5010760;28;20338;-62
2023/09/25 02:35:13;;;;;;;4.15;2.50;;;;;;;-145.63;55.01;38975.34;5013130;28;20097;-62
2023/09/25 02:37:40;;;;;;;4.65;2.05;;;;;;;-145.63;54.78;38991.00;5019535;28;20026;-62
2023/09/25 02:40:09;;;;;;;2.00;1.90;;;;;;;-145.63;54.55;38957.75;5004164;28;20025;-62
2023/09/25 02:42:35;;;;;;;4.13;1.80;;;;;;;-145.63;54.25;38989.03;5023978;28;20025;-63
2023/09/25 02:45:01;;;;;;;4.32;2.10;;;;;;;-145.63;54.43;38914.72;5023727;28;20029;-62
2023/09/25 02:47:27;;;;;;;3.00;2.15;;;;;;;-145.63;54.83;39008.59;5012556;28;20089;-63
2023/09/25 02:49:54;;;;;;;2.50;2.30;;;;;;;-145.63;54.97;39004.69;5009907;28;20210;-63
2023/09/25 02:52:19;;;;;;;2.97;2.10;;;;;;;-145.63;55.82;39020.34;5023562;28;20029;-63
2023/09/25 02:54:45;;;;;;;2.30;2.10;;;;;;;-145.63;55.61;39000.78;5023453;28;20030;-63
2023/09/25 02:57:11;;;;;;;4.30;2.50;;;;;;;-145.63;55.76;38996.88;5006946;28;20026;-63
2023/09/25 02:59:36;;;;;;;4.57;2.00;;;;;;;-145.63;55.03;39000.78;5003741;28;20322;-62
2023/09/25 03:02:02;;;;;;;5.53;2.40;;;;;;;-145.63;54.54;39020.34;5023257;28;20049;-63
2023/09/25 03:04:28;;;;;;;2.53;2.15;;;;;;;-145.63;54.40;38971.44;5020672;28;20030;-64
2023/09/25 03:06:56;;;;;;;4.15;2.22;;;;;;;-145.63;54.45;38955.81;5003983;28;20030;-63
2023/09/25 03:09:21;;;;;;;2.97;2.78;;;;;;;-145.63;54.66;38992.97;5021568;28;20033;-63
2023/09/25 03:11:47;;;;;;;3.72;3.22;;;;;;;-145.63;54.91;38975.34;5023572;28;20044;-63
2023/09/25 03:14:13;;;;;;;4.93;2.67;;;;;;;-145.63;54.38;38977.31;5018834;28;20130;-62
2023/09/25 03:16:40;;;;;;;3.33;3.03;;;;;;;-145.63;54.91;39006.66;5019522;28;20045;-63
2023/09/25 03:19:06;;;;;;;3.63;3.33;;;;;;;-145.63;54.59;38987.09;5003765;28;20027;-64
2023/09/25 03:21:32;;;;;;;3.72;3.40;;;;;;;-145.63;53.98;38991.00;5022993;28;20030;-63
2023/09/25 03:23:57;;;;;;;3.50;3.20;;;;;;;-145.63;54.61;39010.56;5009005;28;20322;-63
2023/09/25 03:26:23;;;;;;;4.35;3.90;;;;;;;-145.63;54.67;38946.03;5013352;28;20046;-64
2023/09/25 03:28:49;;;;;;;5.25;3.65;;;;;;;-145.63;54.90;39020.34;5018419;28;20065;-64
2023/09/25 03:31:15;;;;;;;6.63;4.18;;;;;;;-145.63;55.53;39035.97;5003931;28;20049;-64
2023/09/25 03:33:41;;;;;;;4.45;4.00;;;;;;;-145.63;55.04;38992.97;5023343;28;20018;-63
2023/09/25 03:36:07;;;;;;;6.03;4.38;;;;;;;-145.63;55.59;38996.88;5007598;28;20093;-63
2023/09/25 03:38:35;;;;;;;5.40;4.30;;;;;;;-145.63;55.15;38979.28;5014514;28;20033;-63
2023/09/25 03:41:01;;;;;;;4.28;3.78;;;;;;;-145.63;55.23;39032.06;5023175;28;20068;-63
2023/09/25 03:43:26;;;;;;;4.60;4.18;;;;;;;-145.63;54.63;38985.13;5024747;28;20026;-64
2023/09/25 03:45:52;;;;;;;4.75;4.28;;;;;;;-145.63;54.75;39043.81;5007444;28;20042;-64
2023/09/25 03:48:18;;;;;;;4.53;4.10;;;;;;;-145.63;54.95;38985.13;5007286;28;20088;-63
2023/09/25 03:50:44;;;;;;;5.10;4.60;;;;;;;-145.63;55.63;38994.91;5019702;28;20318;-62
2023/09/25 03:53:11;;;;;;;5.60;4.20;;;;;;;-145.63;55.00;39002.72;5018857;28;20030;-63
2023/09/25 03:55:38;;;;;;;4.50;4.10;;;;;;;-145.63;55.25;38991.00;5015926;28;20089;-63
2023/09/25 03:58:04;;;;;;;6.18;3.72;;;;;;;-145.63;54.30;39014.47;5026859;28;20090;-63
2023/09/25 04:00:30;;;;;;;4.35;3.95;;;;;;;-145.63;53.43;38985.13;5013530;28;20030;-63
2023/09/25 04:02:55;;;;;;;4.07;3.33;;;;;;;-145.63;54.21;38992.97;5026587;28;20040;-62
2023/09/25 04:05:21;;;;;;;4.07;3.67;;;;;;;-145.63;54.14;39008.59;5017372;28;20050;-63
2023/09/25 04:07:46;;;;;;;4.43;4.03;;;;;;;-145.63;54.63;39000.78;5011363;28;20068;-62
2023/09/25 04:10:12;;;;;;;5.35;4.03;;;;;;;-145.63;54.71;38991.00;5026616;28;20326;-63
2023/09/25 04:12:38;;;;;;;8.70;4.60;;;;;;;-145.63;54.29;38983.19;5007144;28;20069;-61
2023/09/25 04:15:13;;;;;;;6.72;4.00;;;;;;;-145.63;54.80;39000.78;5021801;28;20029;-63
2023/09/25 04:17:39;;;;;;;4.22;3.75;;;;;;;-145.63;54.99;39020.34;5015231;28;20029;-62
2023/09/25 04:20:08;;;;;;;4.32;3.90;;;;;;;-145.63;54.28;38989.03;5013828;28;20299;-63
2023/09/25 04:22:37;;;;;;;4.38;4.00;;;;;;;-145.63;54.30;39020.34;5023811;28;20056;-62
2023/09/25 04:25:08;;;;;;;4.32;3.47;;;;;;;-145.63;53.90;38967.53;5006659;28;20295;-62
2023/09/25 04:27:34;;;;;;;4.40;4.00;;;;;;;-145.63;54.46;39002.72;5018516;28;20058;-68
2023/09/25 04:30:08;;;;;;;4.65;4.10;;;;;;;-145.63;54.40;39045.75;5020481;28;20034;-66
2023/09/25 04:32:34;;;;;;;4.25;3.88;;;;;;;-145.63;54.05;38770.03;5020375;28;20030;-65
2023/09/25 04:34:59;;;;;;;4.38;3.97;;;;;;;-145.63;54.21;38977.31;5039720;28;20089;-64
2023/09/25 04:37:25;;;;;;;4.32;3.92;;;;;;;-145.63;54.49;39008.59;5024564;28;20048;-64
2023/09/25 04:39:51;;;;;;;5.65;4.13;;;;;;;-145.63;53.79;39000.78;5006381;28;20036;-65
2023/09/25 04:42:17;;;;;;;4.90;4.15;;;;;;;-145.63;53.38;38992.97;5022520;28;20064;-64
2023/09/25 04:44:43;;;;;;;4.10;3.72;;;;;;;-145.63;53.19;39028.16;5014154;28;20026;-62
2023/09/25 04:47:10;;;;;;;5.72;4.10;;;;;;;-145.63;53.06;38961.66;5012813;28;20035;-63
2023/09/25 04:49:35;;;;;;;7.30;3.88;;;;;;;-145.63;52.87;38994.91;5025342;28;20030;-62
2023/09/25 04:52:01;;;;;;;4.65;4.22;;;;;;;-145.63;52.98;39024.25;5025391;28;20072;-63
2023/09/25 04:54:28;;;;;;;5.00;3.92;;;;;;;-145.63;52.73;39020.34;5006988;28;20065;-64
2023/09/25 04:56:54;;;;;;;4.10;3.70;;;;;;;-145.63;52.88;38989.03;5006027;28;20310;-62
2023/09/25 04:59:19;;;;;;;4.30;3.67;;;;;;;-145.63;52.41;38987.09;5013918;28;20037;-63
2023/09/25 05:01:45;;;;;;;5.00;4.50;;;;;;;-145.63;52.87;39012.50;5041299;28;20041;-62
2023/09/25 05:04:11;;;;;;;4.50;4.10;;;;;;;-145.63;52.75;39012.50;5010985;28;20026;-62
2023/09/25 05:06:36;;;;;;;5.13;4.55;;;;;;;-145.63;53.03;39028.16;5024707;28;20037;-63
2023/09/25 05:09:02;;;;;;;5.47;4.38;;;;;;;-145.63;52.41;38991.00;5011155;28;20180;-62
2023/09/25 05:11:28;;;;;;;10.00;4.70;;;;;;;-145.63;52.88;38977.31;5015083;28;20097;-62
2023/09/25 05:13:54;;;;;;;4.97;4.40;;;;;;;-145.63;53.41;38965.56;5020458;28;20026;-62
2023/09/25 05:16:19;;;;;;;7.63;4.45;;;;;;;-145.63;52.83;39010.56;5005554;28;20431;-63
2023/09/25 05:18:45;;;;;;;4.90;4.28;;;;;;;-145.63;52.73;39024.25;5025126;28;20041;-63
2023/09/25 05:21:11;;;;;;;4.80;4.40;;;;;;;-145.63;52.90;39035.97;5008771;28;20031;-62
2023/09/25 05:23:37;;;;;;;6.75;4.65;;;;;;;-145.63;53.22;39012.50;5016103;28;20258;-63
2023/09/25 05:26:02;;;;;;;7.18;5.28;;;;;;;-145.63;52.90;39030.13;5018900;28;20105;-62
2023/09/25 05:28:28;;;;;;;5.25;4.47;;;;;;;-145.63;52.87;39012.50;5005447;28;20361;-61
2023/09/25 05:30:54;;;;;;;5.50;5.00;;;;;;;-145.63;53.09;39012.50;5025029;28;20342;-63
2023/09/25 05:33:22;;;;;;;8.38;4.45;;;;;;;-145.63;52.99;39022.28;5007491;28;20037;-61
2023/09/25 05:35:48;;;;;;;6.35;5.68;;;;;;;-145.63;52.76;38994.91;5017270;28;20026;-62
2023/09/25 05:38:14;;;;;;;21.02;18.35;;;;;;;-145.63;52.25;38987.09;5024693;28;20089;-61
2023/09/25 05:40:40;;;;;;;8.07;5.97;;;;;;;-145.63;52.33;39008.59;5024937;28;20091;-62
2023/09/25 05:43:06;;;;;;;8.20;5.40;;;;;;;-145.63;52.56;38992.97;5024644;28;20109;-62
2023/09/25 05:45:32;;;;;;;7.15;6.40;;;;;;;-145.63;52.33;38991.00;5024405;28;20042;-63
2023/09/25 05:47:58;;;;;;;6.90;5.10;;;;;;;-145.63;52.65;39006.66;5011721;28;20038;-62
2023/09/25 05:50:26;;;;;;;6.05;4.90;;;;;;;-145.63;51.54;38994.91;5004842;28;20319;-63
2023/09/25 05:52:52;;;;;;;4.80;4.35;;;;;;;-145.63;52.13;38998.81;5004810;28;20026;-63
2023/09/25 05:55:18;;;;;;;9.23;4.60;;;;;;;-145.63;51.77;38994.91;5004747;28;20333;-62
2023/09/25 05:57:45;;;;;;;9.75;5.70;;;;;;;-145.63;51.86;38987.09;5024660;28;20052;-62
2023/09/25 06:00:12;;;;;;;8.10;4.50;;;;;;;-145.63;51.12;38996.88;5012290;28;20017;-62
2023/09/25 06:02:40;;;;;;;6.85;4.57;;;;;;;-145.63;50.89;38973.41;5024361;28;20093;-62
2023/09/25 06:05:06;;;;;;;6.70;4.40;;;;;;;-145.63;50.51;38985.13;5018034;28;20060;-63
2023/09/25 06:07:32;;;;;;;5.57;3.83;;;;;;;-145.63;50.79;38953.84;5006182;28;20034;-63
2023/09/25 06:09:57;;;;;;;5.25;3.85;;;;;;;-145.63;50.59;38973.41;5040175;28;20182;-63
2023/09/25 06:12:23;;;;;;;6.75;3.97;;;;;;;-145.63;51.15;38965.56;5027785;28;20026;-64
2023/09/25 06:14:49;;;;;;;8.95;5.25;;;;;;;-145.63;50.89;38975.34;5012484;28;20026;-63
2023/09/25 06:17:15;;;;;;;6.22;4.28;;;;;;;-145.63;50.85;39004.69;5011456;28;20093;-63
2023/09/25 06:19:41;;;;;;;5.38;3.80;;;;;;;-145.63;50.64;38983.19;5021925;28;20028;-62
2023/09/25 06:22:07;;;;;;;6.90;4.03;;;;;;;-145.63;50.58;39004.69;5004427;28;20022;-63
2023/09/25 06:24:33;;;;;;;5.32;4.25;;;;;;;-145.63;50.58;38979.28;5022086;28;20068;-63
2023/09/25 06:26:59;;;;;;;4.07;3.67;;;;;;;-145.63;50.62;38971.44;5014115;28;20041;-63
2023/09/25 06:29:25;;;;;;;4.78;4.03;;;;;;;-145.63;49.86;38953.84;5023391;28;20025;-63
2023/09/25 06:31:51;;;;;;;4.82;4.35;;;;;;;-145.63;50.34;39004.69;5023978;28;20042;-62
2023/09/25 06:34:17;;;;;;;4.15;3.75;;;;;;;-145.63;50.68;38963.63;5023351;28;20068;-62
2023/09/25 06:36:42;;;;;;;4.60;3.72;;;;;;;-145.63;50.17;38969.50;5022927;28;20026;-62
2023/09/25 06:39:09;;;;;;;5.75;4.13;;;;;;;-145.63;49.78;38965.56;5023682;28;20306;-63
2023/09/25 06:41:39;;;;;;;3.92;3.53;;;;;;;-145.63;48.83;38961.66;5023757;28;20399;-63
2023/09/25 06:44:05;;;;;;;5.80;4.45;;;;;;;-145.63;48.98;38996.88;5023746;28;20056;-62
2023/09/25 06:46:32;;;;;;;6.10;3.28;;;;;;;-145.63;48.75;38965.56;5022840;28;20029;-62
2023/09/25 06:48:59;;;;;;;4.07;3.70;;;;;;;-145.63;48.34;38971.44;5004338;28;20262;-62
2023/09/25 06:51:26;;;;;;;3.35;3.13;;;;;;;-145.63;48.22;38967.53;5020042;28;20081;-63
2023/09/25 06:53:52;;;;;;;4.38;3.97;;;;;;;-145.63;48.92;38977.31;5023650;28;20037;-62
2023/09/25 06:56:17;;;;;;;7.63;3.83;;;;;;;-145.63;48.41;38961.66;5016436;28;20285;-63
2023/09/25 06:58:43;;;;;;;3.95;3.53;;;;;;;-145.63;48.37;38963.63;5006162;28;20084;-63
2023/09/25 07:01:08;;;;;;;6.95;4.18;;;;;;;-145.63;48.07;38994.91;5023344;28;20079;-62
2023/09/25 07:03:34;;;;;;;4.75;3.70;;;;;;;-145.63;47.88;38996.88;5023260;28;20053;-62
2023/09/25 07:06:00;;;;;;;4.97;3.60;;;;;;;-145.63;48.45;38967.53;5010715;28;20026;-63
2023/09/25 07:08:27;;;;;;;5.15;3.95;;;;;;;-145.63;48.05;38961.66;5023157;28;20026;-62
2023/09/25 07:10:53;;;;;;;3.20;2.90;;;;;;;-145.63;48.47;38967.53;5020110;28;20065;-62
2023/09/25 07:13:20;;;;;;;6.78;3.63;;;;;;;-145.63;48.79;38973.41;5003613;28;20226;-63
2023/09/25 07:15:47;;;;;;;5.90;3.95;;;;;;;-145.63;48.29;38996.88;5022659;28;20032;-63
2023/09/25 07:18:13;;;;;;;4.50;3.42;;;;;;;-145.63;48.87;38987.09;5029963;28;20050;-63
2023/09/25 07:20:39;;;;;;;6.38;3.65;;;;;;;-145.63;48.45;38985.13;5027380;28;20042;-63
2023/09/25 07:23:06;;;;;;;3.50;3.00;;;;;;;-145.63;48.00;38967.53;5022407;28;20235;-63
2023/09/25 07:25:32;;;;;;;4.28;3.67;;;;;;;-145.63;47.90;38969.50;5008090;28;20026;-64
2023/09/25 07:27:57;;;;;;;4.18;3.70;;;;;;;-145.63;47.84;39010.56;5027860;28;20037;-63
2023/09/25 07:30:23;;;;;;;4.65;4.20;;;;;;;-145.63;48.43;38959.72;5035229;28;20032;-62
2023/09/25 07:32:49;;;;;;;4.85;3.55;;;;;;;-145.63;48.06;38977.31;5036158;28;20030;-63
2023/09/25 07:35:15;;;;;;;4.72;4.00;;;;;;;-145.63;48.25;38994.91;5020656;28;20085;-63
2023/09/25 07:37:42;;;;;;;4.63;3.83;;;;;;;-145.63;48.34;39004.69;5009295;28;20033;-62
2023/09/25 07:40:13;;;;;;;5.45;3.67;;;;;;;-145.63;48.26;38987.09;5027084;28;20191;-62
2023/09/25 07:42:42;;;;;;;4.10;3.80;;;;;;;-145.63;48.29;39030.13;5026506;28;20029;-62
2023/09/25 07:45:11;;;;;;;5.50;3.65;;;;;;;-145.63;48.16;38983.19;5013441;28;20029;-62
2023/09/25 07:47:41;;;;;;;9.07;3.70;;;;;;;-145.63;47.27;38992.97;5016673;28;20053;-63
2023/09/25 07:50:11;;;;;;;4.07;3.50;;;;;;;-145.63;47.24;39024.25;5022677;28;20053;-62
2023/09/25 07:52:38;;;;;;;6.93;4.10;;;;;;;-145.63;47.27;38969.50;5029291;28;20032;-62
2023/09/25 07:55:10;;;;;;;5.50;5.00;;;;;;;-145.63;47.17;38963.63;5036165;28;20025;-63
2023/09/25 07:57:39;;;;;;;4.97;3.80;;;;;;;-145.63;47.09;38930.38;5036219;28;20048;-63
2023/09/25 08:00:24;;;;;;;4.13;3.30;;;;;;;-145.63;48.05;38961.66;5029642;28;20279;-64
2023/09/25 08:02:51;;;;;;;5.72;3.55;;;;;;;-145.63;47.91;38938.19;5034766;28;20033;-63
2023/09/25 08:05:19;;;;;;;4.65;3.65;;;;;;;-145.63;47.76;38949.94;5035242;28;20029;-63
2023/09/25 08:07:46;;;;;;;5.15;4.25;;;;;;;-145.63;47.76;38959.72;5028971;28;20093;-63
2023/09/25 08:10:12;;;;;;;5.03;3.85;;;;;;;-145.63;47.59;38957.75;5030960;28;20026;-63
2023/09/25 08:12:38;;;;;;;7.15;5.35;;;;;;;-145.63;47.65;38926.47;5032973;28;20030;-62
2023/09/25 08:15:04;;;;;;;4.38;3.70;;;;;;;-145.63;47.28;38973.41;5034570;28;20191;-63
2023/09/25 08:17:31;;;;;;;6.15;3.58;;;;;;;-145.63;47.08;38955.81;5034919;28;20354;-63
2023/09/25 08:19:56;;;;;;;5.47;3.63;;;;;;;-145.63;46.99;38963.63;5031122;28;20038;-62
2023/09/25 08:22:22;;;;;;;7.38;3.70;;;;;;;-145.63;47.37;38938.19;5033683;28;20302;-63
2023/09/25 08:24:48;;;;;;;6.70;3.80;;;;;;;-145.63;46.61;38815.00;5028645;28;20028;-62
2023/09/25 08:27:14;;;;;;;4.90;3.75;;;;;;;-145.63;47.23;38928.44;5029592;28;20322;-63
2023/09/25 08:29:40;;;;;;;4.30;3.90;;;;;;;-145.63;47.26;38957.75;5034360;28;20042;-64
2023/09/25 08:32:07;;;;;;;3.35;3.10;;;;;;;-145.63;46.54;38944.06;5030806;28;20096;-63
2023/09/25 08:34:34;;;;;;;4.78;3.30;;;;;;;-145.63;45.21;38985.13;5027273;28;20022;-63
2023/09/25 08:36:59;;;;;;;3.40;3.08;;;;;;;-145.63;44.95;38914.72;5033029;28;20198;-63
2023/09/25 08:39:25;;;;;;;4.93;3.17;;;;;;;-145.63;45.48;38991.00;5032962;28;20032;-63
2023/09/25 08:41:51;;;;;;;8.52;2.83;;;;;;;-145.63;44.73;38942.13;5021904;28;20030;-63
2023/09/25 08:44:19;;;;;;;4.78;3.10;;;;;;;-145.63;45.31;38951.88;5029444;28;20045;-63
2023/09/25 08:46:45;;;;;;;4.70;3.30;;;;;;;-145.63;45.29;38942.13;5030487;28;20184;-63
2023/09/25 08:49:12;;;;;;;4.60;3.22;;;;;;;-145.63;45.41;38938.19;5030710;28;20053;-63
2023/09/25 08:51:39;;;;;;;4.30;3.33;;;;;;;-145.63;45.62;38918.66;5035971;28;20080;-63
2023/09/25 08:54:08;;;;;;;3.67;3.22;;;;;;;-145.63;45.64;38938.19;5039634;28;20028;-63
2023/09/25 08:56:35;;;;;;;5.53;3.15;;;;;;;-145.63;45.82;38936.25;5036909;28;20033;-64
2023/09/25 08:59:04;;;;;;;4.40;3.35;;;;;;;-145.63;45.85;38922.56;5021675;28;20057;-63
2023/09/25 09:01:30;;;;;;;6.60;3.50;;;;;;;-145.63;45.86;38912.78;5027988;28;20036;-63
2023/09/25 09:03:56;;;;;;;8.82;4.00;;;;;;;-145.63;46.21;38930.38;5025160;28;20022;-63
2023/09/25 09:06:22;;;;;;;5.70;3.30;;;;;;;-145.63;45.97;38949.94;5033791;28;20076;-64
2023/09/25 09:08:49;;;;;;;7.22;3.50;;;;;;;-145.63;45.51;38918.66;5035099;28;20040;-63
2023/09/25 09:11:15;;;;;;;6.30;3.25;;;;;;;-145.63;45.77;38938.19;5019405;28;20037;-63
2023/09/25 09:13:43;;;;;;;3.83;3.40;;;;;;;-145.63;47.20;38916.69;5014166;28;20210;-63
2023/09/25 09:16:17;;;;;;;7.50;3.78;;;;;;;-145.63;46.70;38951.88;5021847;28;20057;-64
2023/09/25 09:18:45;;;;;;;5.05;3.72;;;;;;;-145.63;46.96;38887.34;5019503;28;20535;-64
2023/09/25 09:21:26;;;;;;;4.90;3.17;;;;;;;-145.63;46.79;38944.06;5006760;28;20030;-63
2023/09/25 09:23:57;;;;;;;6.47;3.55;;;;;;;-145.63;47.01;38963.63;5008299;28;20109;-62
2023/09/25 09:26:24;;;;;;;4.07;3.30;;;;;;;-145.63;46.79;38989.03;5025875;28;20038;-63
2023/09/25 09:28:53;;;;;;;4.55;3.70;;;;;;;-145.63;46.60;38946.03;5022893;28;20042;-63
2023/09/25 09:31:19;;;;;;;4.78;3.63;;;;;;;-145.63;46.63;38965.56;5005058;28;20030;-63
2023/09/25 09:33:45;;;;;;;5.80;4.07;;;;;;;-145.63;46.92;38912.78;5021760;28;20022;-63
2023/09/25 09:36:15;;;;;;;7.28;3.67;;;;;;;-145.63;47.20;38903.00;5011823;28;20025;-64
2023/09/25 09:38:43;;;;;;;5.22;3.92;;;;;;;-145.63;47.26;38914.72;5029043;28;20050;-63
2023/09/25 09:41:09;;;;;;;4.00;3.65;;;;;;;-145.63;47.45;38946.03;5023974;28;20324;-62
2023/09/25 09:43:36;;;;;;;7.57;4.15;;;;;;;-145.63;47.18;38926.47;5024464;28;20038;-64
2023/09/25 09:46:02;;;;;;;5.18;3.58;;;;;;;-145.63;46.71;38940.16;5016675;28;20034;-64
2023/09/25 09:48:31;;;;;;;7.32;3.53;;;;;;;-145.63;47.14;38934.28;5029200;28;20318;-63
2023/09/25 09:51:03;;;;;;;6.65;3.42;;;;;;;-145.63;46.86;38946.03;5013590;28;20052;-63
2023/09/25 09:53:34;;;;;;;5.53;3.17;;;;;;;-145.63;47.49;38930.38;5011882;28;20344;-63
2023/09/25 09:56:01;;;;;;;5.73;4.07;;;;;;;-145.63;46.79;38922.56;5021258;28;20034;-64
2023/09/25 09:58:28;;;;;;;4.30;3.90;;;;;;;-145.63;46.23;38918.66;5004853;28;20037;-64
2023/09/25 10:00:56;;;;;;;4.82;3.65;;;;;;;-145.63;46.38;38916.69;5023180;28;20222;-64
2023/09/25 10:03:24;;;;;;;3.95;3.55;;;;;;;-145.63;46.41;38992.97;5024077;28;20038;-63
2023/09/25 10:05:51;;;;;;;4.18;3.50;;;;;;;-145.63;46.45;38932.34;5022310;28;20032;-62
2023/09/25 10:08:17;;;;;;;3.88;3.33;;;;;;;-145.63;46.06;38914.72;5018225;28;20041;-63
2023/09/25 10:10:48;;;;;;;4.93;3.38;;;;;;;-145.63;46.90;38963.63;5023593;28;20064;-62
2023/09/25 10:13:21;;;;;;;3.28;2.97;;;;;;;-145.63;46.98;38922.56;5004242;28;20146;-63
2023/09/25 10:15:57;;;;;;;5.90;4.07;;;;;;;-145.63;47.08;38977.31;5011220;28;20028;-63
2023/09/25 10:18:25;;;;;;;6.95;3.42;;;;;;;-145.63;46.75;38940.16;5005708;28;20054;-63
2023/09/25 10:20:51;;;;;;;6.43;3.97;;;;;;;-145.63;46.85;38918.66;5010977;28;20049;-61
2023/09/25 10:23:22;;;;;;;4.90;3.83;;;;;;;-145.63;47.05;38949.94;5018950;28;20214;-64
2023/09/25 10:25:52;;;;;;;3.97;3.40;;;;;;;-145.63;46.00;38887.34;5011801;28;21152;-63
2023/09/25 10:28:31;;;;;;;7.03;3.42;;;;;;;-145.63;45.78;38873.66;5004155;28;20038;-62
2023/09/25 10:30:58;;;;;;;4.32;3.40;;;;;;;-145.63;45.77;38891.28;5021103;28;20101;-62
2023/09/25 10:33:28;;;;;;;5.00;3.45;;;;;;;-145.63;45.51;38652.69;5017381;28;20040;-62
2023/09/25 10:36:04;;;;;;;5.97;3.42;;;;;;;-145.63;45.38;38934.28;5022913;28;20305;-63
2023/09/25 10:38:34;;;;;;;4.20;3.42;;;;;;;-145.63;45.35;38895.19;5036541;28;20072;-62
2023/09/25 10:41:02;;;;;;;4.65;3.38;;;;;;;-145.63;45.10;38875.63;5023705;28;20109;-63
2023/09/25 10:43:29;;;;;;;7.50;3.10;;;;;;;-145.63;44.75;38930.38;5023419;28;20033;-63
2023/09/25 10:45:55;;;;;;;3.75;3.45;;;;;;;-145.63;45.90;38932.34;5023438;28;20201;-63
2023/09/25 10:48:24;;;;;;;4.47;4.07;;;;;;;-145.63;46.38;38938.19;5023264;28;20053;-63
2023/09/25 10:50:50;;;;;;;5.40;3.58;;;;;;;-145.63;45.51;38877.56;5030644;28;20072;-63
2023/09/25 10:53:17;;;;;;;4.78;3.53;;;;;;;-145.63;45.89;38926.47;5038114;28;20311;-63
2023/09/25 10:55:43;;;;;;;5.68;3.63;;;;;;;-145.63;45.21;38914.72;5026317;28;20380;-62
2023/09/25 10:58:12;;;;;;;5.05;3.20;;;;;;;-145.63;44.87;38883.44;5022005;28;20060;-62
2023/09/25 11:00:39;;;;;;;4.13;3.20;;;;;;;-145.63;44.77;38920.59;5020876;28;20063;-63
2023/09/25 11:03:06;;;;;;;3.80;3.03;;;;;;;-145.63;44.15;38926.47;5042746;28;20241;-61
2023/09/25 11:05:35;;;;;;;6.35;3.55;;;;;;;-145.63;44.27;38885.41;5038800;28;20030;-63
2023/09/25 11:08:03;;;;;;;3.45;3.10;;;;;;;-145.63;44.04;38903.00;5040327;28;20030;-65
2023/09/25 11:10:31;;;;;;;10.13;3.70;;;;;;;-145.63;44.44;38885.41;5023388;28;20025;-63
2023/09/25 11:12:57;;;;;;;4.75;3.65;;;;;;;-145.63;44.82;38889.31;5004971;28;20049;-62
2023/09/25 11:15:25;;;;;;;4.47;3.55;;;;;;;-145.63;44.44;38803.28;5023614;28;20160;-62